Time;durP1;ratioP1;P1;durP2;ratioP2;P2;SDS_P1;SDS_P2;PMS_P1;PMS_P2;Temp;Humidity;BMP_temperature;BMP_pressure;BME280_temperature;BME280_humidity;BME280_pressure;Samples;Min_cycle;Max_cycle;Signal;HPM_P1;HPM_P2
2022/01/07 00:01:23;;;;;;;16.63;5.90;;;3.40;99.90;;;;;;4944052;28;20058;-95
2022/01/07 00:03:51;;;;;;;20.15;5.93;;;3.40;99.90;;;;;;4959583;28;20488;-94
2022/01/07 00:06:17;;;;;;;22.38;5.93;;;3.40;99.90;;;;;;4943742;28;20061;-94
2022/01/07 00:08:44;;;;;;;19.02;5.25;;;3.40;99.90;;;;;;4943397;28;20047;-95
2022/01/07 00:11:10;;;;;;;16.30;5.20;;;3.40;99.90;;;;;;4943589;28;20055;-95
2022/01/07 00:13:36;;;;;;;15.30;5.32;;;3.40;99.90;;;;;;4959541;28;20121;-95
2022/01/07 00:16:02;;;;;;;19.38;5.70;;;3.30;99.90;;;;;;4943661;28;20109;-94
2022/01/07 00:18:28;;;;;;;16.90;5.50;;;3.50;99.90;;;;;;4959578;28;20130;-93
2022/01/07 00:20:54;;;;;;;12.38;4.55;;;3.40;99.90;;;;;;4943699;28;20050;-94
2022/01/07 00:23:20;;;;;;;15.40;4.82;;;3.40;99.90;;;;;;4943318;28;20055;-95
2022/01/07 00:25:47;;;;;;;14.35;5.05;;;3.50;99.90;;;;;;4943344;28;20145;-95
2022/01/07 00:28:13;;;;;;;18.50;4.93;;;3.40;99.90;;;;;;4959193;28;20198;-94
2022/01/07 00:30:38;;;;;;;16.25;4.70;;;3.40;99.90;;;;;;4959391;28;20106;-94
2022/01/07 00:33:05;;;;;;;9.88;4.40;;;3.40;99.90;;;;;;4943374;28;20562;-95
2022/01/07 00:35:32;;;;;;;16.70;4.82;;;3.30;99.90;;;;;;4942892;28;20062;-93
2022/01/07 00:37:58;;;;;;;17.20;4.82;;;3.30;99.90;;;;;;4943153;28;20050;-94
2022/01/07 00:40:25;;;;;;;19.00;4.82;;;3.20;99.90;;;;;;4942957;28;20069;-93
2022/01/07 00:42:52;;;;;;;14.73;5.25;;;3.10;99.90;;;;;;4939847;28;20055;-94
2022/01/07 00:45:20;;;;;;;17.13;5.63;;;3.20;99.90;;;;;;4943045;28;20057;-93
2022/01/07 00:47:45;;;;;;;14.38;4.80;;;3.00;99.90;;;;;;4943205;28;20051;-92
2022/01/07 00:50:13;;;;;;;15.02;5.20;;;3.10;99.90;;;;;;4942936;28;20137;-93
2022/01/07 00:52:39;;;;;;;18.10;5.75;;;3.00;99.90;;;;;;4943232;28;20063;-94
2022/01/07 00:55:06;;;;;;;13.98;5.05;;;2.90;99.90;;;;;;4942593;28;20050;-93
2022/01/07 00:57:50;;;;;;;14.70;5.43;;;2.80;99.90;;;;;;4958424;28;20097;-91
2022/01/07 01:00:18;;;;;;;15.43;4.88;;;2.70;99.90;;;;;;4943093;28;20069;-93
2022/01/07 01:02:44;;;;;;;22.90;5.55;;;2.70;99.90;;;;;;4942714;28;20104;-93
2022/01/07 01:05:12;;;;;;;20.30;5.72;;;2.60;99.90;;;;;;4943141;28;20086;-94
2022/01/07 01:07:38;;;;;;;18.27;6.05;;;2.60;99.90;;;;;;4959017;28;20097;-92
2022/01/07 01:10:07;;;;;;;17.52;6.03;;;2.60;99.90;;;;;;4942582;28;20064;-94
2022/01/07 01:12:38;;;;;;;22.02;6.20;;;2.50;99.90;;;;;;4942669;28;20047;-93
2022/01/07 01:15:07;;;;;;;17.52;5.50;;;2.50;99.90;;;;;;4942485;28;20055;-93
2022/01/07 01:17:33;;;;;;;17.77;5.75;;;2.50;99.90;;;;;;4942182;28;20114;-93
2022/01/07 01:19:59;;;;;;;17.83;5.95;;;2.40;99.90;;;;;;4942550;28;20066;-93
2022/01/07 01:22:25;;;;;;;16.90;5.80;;;2.70;99.90;;;;;;4942382;28;20050;-92
2022/01/07 01:24:51;;;;;;;21.65;6.97;;;2.70;99.90;;;;;;4942318;28;20055;-94
2022/01/07 01:27:17;;;;;;;22.20;6.43;;;2.40;99.90;;;;;;4958394;28;20407;-93
2022/01/07 01:29:43;;;;;;;20.33;6.72;;;2.60;99.90;;;;;;4942930;28;20063;-93
2022/01/07 01:32:08;;;;;;;19.20;6.63;;;2.40;99.90;;;;;;4958592;28;20460;-93
2022/01/07 01:34:34;;;;;;;21.40;6.75;;;2.50;99.90;;;;;;4942459;28;20050;-93
2022/01/07 01:37:00;;;;;;;23.88;7.03;;;2.80;99.90;;;;;;4941845;28;20058;-94
2022/01/07 01:39:26;;;;;;;25.50;7.07;;;2.30;99.90;;;;;;4942401;28;20062;-93
2022/01/07 01:41:52;;;;;;;19.67;7.88;;;2.30;99.90;;;;;;4957861;28;20065;-93
2022/01/07 01:44:18;;;;;;;24.45;7.90;;;2.30;99.90;;;;;;4958122;28;20055;-93
2022/01/07 01:46:43;;;;;;;21.27;8.23;;;2.50;99.90;;;;;;4942104;28;20061;-93
2022/01/07 01:49:09;;;;;;;25.67;7.43;;;2.30;99.90;;;;;;4941972;28;20408;-94
2022/01/07 01:51:35;;;;;;;25.95;8.85;;;2.30;99.90;;;;;;4941873;28;20090;-93
2022/01/07 01:54:03;;;;;;;27.02;9.65;;;2.30;99.90;;;;;;4941628;28;20089;-93
2022/01/07 01:56:29;;;;;;;24.67;9.05;;;2.40;99.90;;;;;;4957859;28;20101;-93
2022/01/07 01:58:54;;;;;;;19.70;8.45;;;2.30;99.90;;;;;;4942246;28;20436;-93
2022/01/07 02:01:20;;;;;;;22.73;8.98;;;2.30;99.90;;;;;;4942010;28;20059;-91
2022/01/07 02:03:47;;;;;;;34.33;9.30;;;2.30;99.90;;;;;;4957953;28;20062;-93
2022/01/07 02:06:14;;;;;;;27.33;9.38;;;2.30;99.90;;;;;;4941496;28;20062;-93
2022/01/07 02:08:40;;;;;;;28.85;9.90;;;2.40;99.90;;;;;;4957796;28;20511;-93
2022/01/07 02:11:06;;;;;;;23.45;9.15;;;2.30;99.90;;;;;;4941738;28;20054;-94
2022/01/07 02:13:32;;;;;;;26.38;9.35;;;2.30;99.90;;;;;;4941469;28;20066;-93
2022/01/07 02:15:57;;;;;;;21.63;8.10;;;2.30;99.90;;;;;;4941549;28;20057;-92
2022/01/07 02:18:23;;;;;;;23.58;9.68;;;2.30;99.90;;;;;;4957716;28;20055;-92
2022/01/07 02:20:49;;;;;;;25.13;10.13;;;2.30;99.90;;;;;;4957723;28;20050;-93
2022/01/07 02:23:18;;;;;;;27.08;9.75;;;2.30;99.90;;;;;;4941764;28;20125;-93
2022/01/07 02:25:45;;;;;;;25.20;10.02;;;2.60;99.90;;;;;;4941564;28;20066;-91
2022/01/07 02:28:11;;;;;;;22.23;10.10;;;2.50;99.90;;;;;;4957655;28;20059;-91
2022/01/07 02:30:37;;;;;;;30.33;11.07;;;2.40;99.90;;;;;;4958118;28;20063;-92
2022/01/07 02:33:03;;;;;;;26.73;11.43;;;2.20;99.90;;;;;;4942072;28;20081;-93
2022/01/07 02:35:32;;;;;;;23.73;10.05;;;2.20;99.90;;;;;;4957188;28;20055;-91
2022/01/07 02:37:57;;;;;;;26.13;11.55;;;2.20;99.90;;;;;;4957530;28;20063;-92
2022/01/07 02:40:23;;;;;;;26.70;10.88;;;2.20;99.90;;;;;;4957386;28;20051;-92
2022/01/07 02:42:49;;;;;;;25.20;10.80;;;2.60;99.90;;;;;;4956955;28;20091;-91
2022/01/07 02:45:15;;;;;;;22.85;11.48;;;2.20;99.90;;;;;;4957492;28;20546;-91
2022/01/07 02:48:04;;;;;;;27.83;11.38;;;2.20;99.90;;;;;;4941786;28;20050;-92
2022/01/07 02:50:33;;;;;;;21.45;11.00;;;2.20;99.90;;;;;;4957388;28;20059;-91
2022/01/07 02:53:00;;;;;;;31.52;11.90;;;2.20;99.90;;;;;;4958539;28;20051;-91
2022/01/07 02:55:27;;;;;;;27.98;11.68;;;2.20;99.90;;;;;;4957162;28;20059;-92
2022/01/07 02:57:53;;;;;;;23.35;11.00;;;2.20;99.90;;;;;;4941576;28;20190;-91
2022/01/07 03:00:21;;;;;;;20.92;9.60;;;2.20;99.90;;;;;;4957277;28;20090;-92
2022/01/07 03:02:49;;;;;;;21.13;9.75;;;2.40;99.90;;;;;;4957665;28;20098;-91
2022/01/07 03:05:15;;;;;;;23.45;10.75;;;2.30;99.90;;;;;;4959307;28;20515;-91
2022/01/07 03:07:42;;;;;;;28.00;12.05;;;2.30;99.90;;;;;;4945149;28;20138;-91
2022/01/07 03:10:09;;;;;;;20.73;9.38;;;2.30;99.90;;;;;;4960551;28;20059;-91
2022/01/07 03:12:37;;;;;;;25.67;11.75;;;2.30;99.90;;;;;;4960572;28;20054;-92
2022/01/07 03:15:05;;;;;;;27.80;12.10;;;2.30;99.90;;;;;;4944893;28;20047;-94
2022/01/07 03:17:30;;;;;;;27.52;11.48;;;2.30;99.90;;;;;;4960676;28;20289;-92
2022/01/07 03:19:56;;;;;;;19.40;9.48;;;2.30;99.90;;;;;;4945029;28;20568;-91
2022/01/07 03:22:22;;;;;;;16.33;9.48;;;2.30;99.90;;;;;;4944057;28;20412;-90
2022/01/07 03:24:47;;;;;;;26.48;11.95;;;2.40;99.90;;;;;;4944407;28;20137;-92
2022/01/07 03:27:13;;;;;;;24.10;11.23;;;2.40;99.90;;;;;;4944445;28;20055;-92
2022/01/07 03:29:39;;;;;;;22.38;9.77;;;2.50;99.90;;;;;;4960363;28;20043;-91
2022/01/07 03:32:05;;;;;;;22.25;10.63;;;2.40;99.90;;;;;;4960451;28;20101;-93
2022/01/07 03:34:30;;;;;;;23.58;11.43;;;2.40;99.90;;;;;;4959977;28;20492;-92
2022/01/07 03:36:57;;;;;;;21.58;10.65;;;2.40;99.90;;;;;;4960004;28;20098;-91
2022/01/07 03:39:23;;;;;;;22.33;11.25;;;2.50;99.90;;;;;;4960138;28;20109;-93
2022/01/07 03:41:49;;;;;;;21.52;9.85;;;2.50;99.90;;;;;;4943706;28;20129;-92
2022/01/07 03:44:15;;;;;;;26.70;9.93;;;2.40;99.90;;;;;;4943894;28;20093;-92
2022/01/07 03:46:41;;;;;;;23.60;10.55;;;2.40;99.90;;;;;;4960060;28;20063;-91
2022/01/07 03:49:06;;;;;;;26.63;10.48;;;2.50;99.90;;;;;;4944170;28;20409;-91
2022/01/07 03:51:32;;;;;;;24.42;10.15;;;2.40;99.90;;;;;;4944072;28;20093;-89
2022/01/07 03:53:58;;;;;;;25.40;11.43;;;2.40;99.90;;;;;;4960089;28;20177;-92
2022/01/07 03:56:23;;;;;;;21.17;10.90;;;2.40;99.90;;;;;;4959277;28;20145;-93
2022/01/07 03:58:49;;;;;;;19.98;9.68;;;2.40;99.90;;;;;;4944172;28;20051;-94
2022/01/07 04:01:15;;;;;;;19.25;9.70;;;2.40;99.90;;;;;;4959950;28;20086;-93
2022/01/07 04:03:41;;;;;;;25.67;11.63;;;2.40;99.90;;;;;;4959598;28;20055;-92
2022/01/07 04:06:08;;;;;;;20.45;10.18;;;2.80;99.90;;;;;;4943646;28;20057;-92
2022/01/07 04:08:34;;;;;;;22.88;10.52;;;2.40;99.90;;;;;;4943515;28;20141;-93
2022/01/07 04:10:59;;;;;;;20.40;10.00;;;2.50;99.90;;;;;;4943453;28;20122;-91
2022/01/07 04:13:25;;;;;;;25.20;10.15;;;2.50;99.90;;;;;;4943595;28;20145;-92
2022/01/07 04:15:51;;;;;;;20.13;10.00;;;2.40;99.90;;;;;;4943304;28;20047;-91
2022/01/07 04:18:16;;;;;;;24.48;10.05;;;2.40;99.90;;;;;;4943682;28;20054;-91
2022/01/07 04:20:42;;;;;;;19.02;8.48;;;2.40;99.90;;;;;;4959346;28;20077;-90
2022/01/07 04:23:08;;;;;;;26.88;10.65;;;2.40;99.90;;;;;;4959176;28;20062;-92
2022/01/07 04:25:34;;;;;;;19.15;10.45;;;2.40;99.90;;;;;;4942910;28;20050;-92
2022/01/07 04:28:06;;;;;;;25.05;10.77;;;2.50;99.90;;;;;;4942989;28;20566;-91
2022/01/07 04:30:35;;;;;;;19.73;9.90;;;2.40;99.90;;;;;;4959426;28;20050;-90
2022/01/07 04:33:02;;;;;;;18.08;9.43;;;2.30;99.90;;;;;;4958807;28;20055;-91
2022/01/07 04:35:29;;;;;;;23.08;9.50;;;2.60;99.90;;;;;;4958715;28;20073;-90
2022/01/07 04:37:55;;;;;;;21.58;9.85;;;2.50;99.90;;;;;;4943006;28;20089;-92
2022/01/07 04:40:21;;;;;;;20.63;10.20;;;2.40;99.90;;;;;;4942995;28;20058;-93
2022/01/07 04:42:48;;;;;;;20.50;10.70;;;2.70;99.90;;;;;;4958165;28;20066;-92
2022/01/07 04:45:14;;;;;;;18.73;9.07;;;2.40;99.90;;;;;;4943197;28;20145;-92
2022/01/07 04:47:40;;;;;;;15.02;9.10;;;2.30;99.90;;;;;;4959062;28;20142;-92
2022/01/07 04:50:10;;;;;;;17.77;9.57;;;2.60;99.90;;;;;;4943162;28;20055;-90
2022/01/07 04:52:36;;;;;;;16.48;9.07;;;2.50;99.90;;;;;;4958663;28;20500;-91
2022/01/07 04:55:02;;;;;;;17.80;9.60;;;2.50;99.90;;;;;;4942400;28;20054;-92
2022/01/07 04:57:28;;;;;;;20.58;9.20;;;2.50;99.90;;;;;;4942627;28;20057;-91
2022/01/07 04:59:53;;;;;;;26.77;9.57;;;2.40;99.90;;;;;;4958860;28;20441;-92
2022/01/07 05:02:20;;;;;;;19.88;9.30;;;2.40;99.90;;;;;;4942654;28;20062;-91
2022/01/07 05:04:47;;;;;;;14.18;8.07;;;2.60;99.90;;;;;;4942637;28;20062;-91
2022/01/07 05:07:13;;;;;;;19.05;9.07;;;2.50;99.90;;;;;;4958641;28;20137;-91
2022/01/07 05:09:38;;;;;;;15.52;7.72;;;2.50;99.90;;;;;;4958275;28;20142;-90
2022/01/07 05:12:04;;;;;;;18.83;9.85;;;2.40;99.90;;;;;;4958086;28;20082;-90
2022/01/07 05:14:30;;;;;;;31.08;9.48;;;2.40;99.90;;;;;;4941855;28;20050;-91
2022/01/07 05:16:56;;;;;;;17.95;9.50;;;2.40;99.90;;;;;;4942384;28;20054;-92
2022/01/07 05:19:22;;;;;;;33.15;9.30;;;2.40;99.90;;;;;;4942603;28;20052;-92
2022/01/07 05:21:48;;;;;;;15.80;7.65;;;2.40;99.90;;;;;;4942391;28;20058;-93
2022/01/07 05:24:13;;;;;;;19.05;8.70;;;2.40;99.90;;;;;;4958382;28;20449;-91
2022/01/07 05:26:39;;;;;;;17.10;8.77;;;2.50;99.90;;;;;;4957793;28;20105;-93
2022/01/07 05:29:05;;;;;;;12.07;7.72;;;2.50;99.90;;;;;;4941894;28;20121;-92
2022/01/07 05:31:31;;;;;;;17.50;8.30;;;2.70;99.90;;;;;;4958046;28;20161;-92
2022/01/07 05:33:57;;;;;;;18.70;8.43;;;2.40;99.90;;;;;;4958223;28;20062;-93
2022/01/07 05:36:23;;;;;;;20.20;8.55;;;2.50;99.90;;;;;;4957677;28;20050;-92
2022/01/07 05:38:50;;;;;;;15.88;7.15;;;2.50;99.90;;;;;;4942131;28;20050;-92
2022/01/07 05:41:16;;;;;;;18.90;8.50;;;2.70;99.90;;;;;;4941840;28;20435;-92
2022/01/07 05:43:42;;;;;;;11.82;7.03;;;2.50;99.90;;;;;;4958174;28;20054;-92
2022/01/07 05:46:10;;;;;;;11.10;7.57;;;2.50;99.90;;;;;;4942354;28;20073;-92
2022/01/07 05:48:36;;;;;;;14.93;7.72;;;2.50;99.90;;;;;;4942018;28;20066;-91
2022/01/07 05:51:02;;;;;;;19.38;7.53;;;2.50;99.90;;;;;;4957824;28;20074;-93
2022/01/07 05:53:28;;;;;;;10.55;6.60;;;2.60;99.90;;;;;;4957758;28;20050;-93
2022/01/07 05:55:53;;;;;;;16.58;7.70;;;2.60;99.90;;;;;;4941416;28;20061;-93
2022/01/07 05:58:19;;;;;;;14.05;6.82;;;2.50;99.90;;;;;;4942104;28;20058;-93
2022/01/07 06:00:45;;;;;;;15.80;7.63;;;2.70;99.90;;;;;;4941941;28;20061;-93
2022/01/07 06:03:10;;;;;;;10.98;6.88;;;2.60;99.90;;;;;;4957976;28;20141;-93
2022/01/07 06:05:36;;;;;;;126.93;15.90;;;2.70;99.90;;;;;;4942022;28;20448;-92
2022/01/07 06:08:02;;;;;;;156.02;15.43;;;2.60;99.90;;;;;;4957744;28;20058;-92
2022/01/07 06:10:28;;;;;;;12.48;6.50;;;2.60;99.90;;;;;;4957670;28;20062;-92
2022/01/07 06:12:54;;;;;;;11.27;6.43;;;2.70;99.90;;;;;;4941422;28;20051;-92
2022/01/07 06:15:19;;;;;;;10.00;6.40;;;2.90;99.90;;;;;;4941692;28;20050;-92
2022/01/07 06:17:45;;;;;;;12.63;6.63;;;2.70;99.90;;;;;;4941626;28;20416;-93
2022/01/07 06:20:11;;;;;;;13.75;7.60;;;2.70;99.90;;;;;;4957338;28;20086;-92
2022/01/07 06:22:37;;;;;;;10.32;6.00;;;2.70;99.90;;;;;;4957819;28;20141;-92
2022/01/07 06:25:05;;;;;;;12.02;7.65;;;2.70;99.90;;;;;;4957586;28;20487;-91
2022/01/07 06:27:31;;;;;;;9.85;6.78;;;2.70;99.90;;;;;;4941402;28;20054;-92
2022/01/07 06:29:57;;;;;;;10.57;6.88;;;2.70;99.90;;;;;;4957636;28;20051;-93
2022/01/07 06:32:24;;;;;;;69.65;6.90;;;2.70;99.90;;;;;;4941655;28;20419;-93
2022/01/07 06:34:50;;;;;;;12.50;6.90;;;2.80;99.90;;;;;;4957286;28;20493;-93
2022/01/07 06:37:16;;;;;;;13.75;6.38;;;3.00;99.90;;;;;;4957419;28;20066;-93
2022/01/07 06:39:42;;;;;;;12.70;7.35;;;2.80;99.90;;;;;;4942965;28;20059;-93
2022/01/07 06:42:08;;;;;;;12.43;6.53;;;2.80;99.90;;;;;;4944681;28;20054;-93
2022/01/07 06:44:35;;;;;;;12.40;7.75;;;2.80;99.90;;;;;;4961294;28;20137;-92
2022/01/07 06:47:01;;;;;;;12.75;7.60;;;2.80;99.90;;;;;;4945049;28;20051;-93
2022/01/07 06:49:27;;;;;;;12.38;8.23;;;2.90;99.90;;;;;;4944943;28;20575;-91
2022/01/07 06:51:53;;;;;;;12.95;8.68;;;3.00;99.90;;;;;;4960832;28;20400;-92
2022/01/07 06:54:19;;;;;;;16.48;8.18;;;2.80;99.90;;;;;;4944896;28;20047;-92
2022/01/07 06:56:45;;;;;;;16.33;9.40;;;2.80;99.90;;;;;;4960880;28;20130;-93
2022/01/07 06:59:14;;;;;;;12.57;7.63;;;2.80;99.90;;;;;;4961138;28;20114;-93
2022/01/07 07:01:42;;;;;;;13.70;8.77;;;2.80;99.90;;;;;;4945459;28;20067;-93
2022/01/07 07:04:08;;;;;;;15.57;8.75;;;2.80;99.90;;;;;;4945054;28;20110;-93
2022/01/07 07:06:34;;;;;;;18.75;9.07;;;2.90;99.90;;;;;;4960874;28;20448;-93
2022/01/07 07:09:03;;;;;;;19.90;9.77;;;3.20;99.90;;;;;;4945260;28;20058;-93
2022/01/07 07:11:29;;;;;;;14.63;10.32;;;2.80;99.90;;;;;;4945118;28;20101;-94
2022/01/07 07:13:55;;;;;;;16.45;9.88;;;2.90;99.90;;;;;;4944976;28;20089;-92
2022/01/07 07:16:21;;;;;;;19.95;10.52;;;2.90;99.90;;;;;;4945289;28;20061;-93
2022/01/07 07:18:47;;;;;;;16.58;9.07;;;2.90;99.90;;;;;;4961493;28;20138;-92
2022/01/07 07:21:13;;;;;;;16.65;9.85;;;2.90;99.90;;;;;;4945505;28;20054;-93
2022/01/07 07:23:39;;;;;;;19.58;11.63;;;3.00;99.90;;;;;;4961104;28;20054;-93
2022/01/07 07:26:04;;;;;;;20.73;11.90;;;3.00;99.90;;;;;;4961956;28;20051;-93
2022/01/07 07:28:30;;;;;;;19.73;11.10;;;3.00;99.90;;;;;;4945988;28;20058;-93
2022/01/07 07:31:00;;;;;;;20.95;11.57;;;3.00;99.90;;;;;;4962031;28;20050;-93
2022/01/07 07:38:22;;;;;;;22.58;12.98;;;3.10;99.90;;;;;;4966531;28;20055;-93
2022/01/07 07:40:48;;;;;;;23.48;12.75;;;3.10;99.90;;;;;;4964079;28;20054;-94
2022/01/07 07:43:14;;;;;;;22.98;12.20;;;3.10;99.90;;;;;;4954945;28;20538;-93
2022/01/07 07:45:39;;;;;;;22.08;13.20;;;3.20;99.90;;;;;;4948544;28;20122;-93
2022/01/07 07:48:06;;;;;;;25.67;14.73;;;3.20;99.90;;;;;;4971702;28;20081;-93
2022/01/07 07:50:32;;;;;;;28.88;15.18;;;3.20;99.90;;;;;;4952579;28;20043;-95
2022/01/07 07:52:57;;;;;;;23.90;13.45;;;3.20;99.90;;;;;;4957681;28;20049;-95
2022/01/07 07:55:23;;;;;;;22.17;12.70;;;3.30;99.90;;;;;;4953991;28;20051;-93
2022/01/07 07:57:49;;;;;;;24.02;13.43;;;3.30;99.90;;;;;;4955744;28;20050;-93
2022/01/07 08:00:15;;;;;;;28.35;15.25;;;3.40;99.90;;;;;;4970492;28;20055;-94
2022/01/07 08:02:40;;;;;;;28.48;14.77;;;3.40;99.90;;;;;;4954703;28;20049;-93
2022/01/07 08:05:07;;;;;;;26.52;15.00;;;3.40;99.90;;;;;;4971046;28;20086;-93
2022/01/07 08:07:32;;;;;;;22.98;14.50;;;3.40;99.90;;;;;;4950656;28;20054;-93
2022/01/07 08:09:58;;;;;;;32.00;16.77;;;3.40;99.90;;;;;;4970567;28;20043;-92
2022/01/07 08:12:49;;;;;;;24.98;15.43;;;3.50;99.90;;;;;;4953976;28;20500;-93
2022/01/07 08:17:53;;;;;;;31.90;16.45;;;3.50;99.90;;;;;;4960041;28;20058;-93
2022/01/07 08:20:19;;;;;;;26.63;15.95;;;3.60;99.90;;;;;;4943953;28;20051;-93
2022/01/07 08:22:45;;;;;;;35.38;17.83;;;3.70;99.90;;;;;;4944329;28;20054;-94
2022/01/07 08:25:10;;;;;;;31.58;17.58;;;3.70;99.90;;;;;;4945575;28;20070;-93
2022/01/07 08:27:36;;;;;;;33.58;18.85;;;3.70;99.90;;;;;;4944437;28;20054;-93
2022/01/07 08:30:14;;;;;;;28.63;17.92;;;3.70;99.90;;;;;;4943947;28;20051;-93
2022/01/07 08:35:24;;;;;;;27.77;16.13;;;4.10;99.90;;;;;;4960437;28;20090;-94
2022/01/07 08:37:49;;;;;;;32.95;17.63;;;3.80;99.90;;;;;;4945987;28;20110;-94
2022/01/07 08:40:15;;;;;;;35.65;19.98;;;3.90;99.90;;;;;;4961162;28;20054;-95
2022/01/07 08:42:41;;;;;;;30.98;17.88;;;3.90;99.90;;;;;;4961755;28;20481;-94
2022/01/07 08:45:07;;;;;;;119.95;23.88;;;4.00;99.90;;;;;;4944951;28;20058;-92
2022/01/07 08:47:33;;;;;;;35.38;18.08;;;4.00;99.90;;;;;;4960771;28;20050;-93
2022/01/07 08:49:58;;;;;;;33.28;18.10;;;4.10;99.90;;;;;;4945497;28;20476;-93
2022/01/07 08:52:24;;;;;;;31.70;19.95;;;4.30;99.90;;;;;;4943023;28;20146;-94
2022/01/07 08:54:53;;;;;;;31.92;18.40;;;4.20;99.90;;;;;;4950754;28;20057;-92
2022/01/07 08:57:20;;;;;;;29.13;17.13;;;4.20;99.90;;;;;;4979299;28;20069;-92
2022/01/07 08:59:48;;;;;;;31.65;19.23;;;4.10;99.90;;;;;;4962524;28;20129;-93
2022/01/07 09:02:13;;;;;;;37.40;20.45;;;4.10;99.90;;;;;;4961530;28;20061;-93
2022/01/07 09:04:39;;;;;;;39.53;20.50;;;4.40;99.90;;;;;;4979032;28;20054;-94
2022/01/07 09:07:05;;;;;;;32.75;19.25;;;4.40;99.90;;;;;;4962793;28;20059;-94
2022/01/07 09:09:30;;;;;;;39.60;19.58;;;4.50;99.90;;;;;;4979177;28;20050;-94
2022/01/07 09:11:56;;;;;;;33.13;18.65;;;4.30;99.90;;;;;;4978828;28;20056;-93
2022/01/07 09:14:22;;;;;;;37.03;20.33;;;4.30;99.90;;;;;;4962729;28;20120;-92
2022/01/07 09:16:47;;;;;;;24.92;16.35;;;4.30;99.90;;;;;;4962076;28;20050;-93
2022/01/07 09:19:13;;;;;;;34.38;18.95;;;4.40;99.90;;;;;;4962440;28;20487;-92
2022/01/07 09:21:39;;;;;;;35.50;19.38;;;4.80;99.90;;;;;;4957716;28;20133;-94
2022/01/07 09:24:05;;;;;;;35.60;18.38;;;4.80;99.90;;;;;;4959346;28;20152;-92
2022/01/07 09:26:30;;;;;;;36.40;19.58;;;4.50;99.90;;;;;;4943192;28;20146;-93
2022/01/07 09:28:56;;;;;;;32.60;17.67;;;4.50;99.90;;;;;;4942603;28;20247;-94
2022/01/07 09:31:22;;;;;;;31.95;18.42;;;4.30;99.90;;;;;;4941395;28;20058;-94
2022/01/07 09:33:47;;;;;;;33.17;18.48;;;4.60;99.90;;;;;;4941448;28;20047;-94
2022/01/07 09:36:13;;;;;;;42.03;19.80;;;4.80;99.90;;;;;;4940814;28;20505;-94
2022/01/07 09:38:39;;;;;;;32.40;19.35;;;4.70;99.90;;;;;;4957098;28;20416;-94
2022/01/07 09:41:07;;;;;;;30.30;16.98;;;4.70;99.90;;;;;;4941608;28;20125;-93
2022/01/07 09:43:33;;;;;;;40.72;19.05;;;4.70;99.90;;;;;;4956499;28;20058;-93
2022/01/07 09:45:59;;;;;;;36.28;19.27;;;4.60;99.90;;;;;;4941360;28;20065;-92
2022/01/07 09:48:25;;;;;;;25.42;16.70;;;4.60;99.90;;;;;;4938854;28;20055;-92
2022/01/07 09:50:50;;;;;;;42.28;19.20;;;4.50;99.90;;;;;;4957641;28;20070;-91
2022/01/07 09:53:16;;;;;;;42.75;20.55;;;4.50;99.90;;;;;;4956832;28;20126;-93
2022/01/07 09:55:43;;;;;;;41.78;21.10;;;4.60;99.90;;;;;;4941358;28;20038;-93
2022/01/07 09:58:10;;;;;;;37.42;19.55;;;4.60;99.90;;;;;;4941813;28;20089;-92
2022/01/07 10:00:41;;;;;;;30.25;18.42;;;4.70;99.90;;;;;;4942528;28;20055;-92
2022/01/07 10:03:17;;;;;;;37.33;20.27;;;4.70;99.90;;;;;;4956138;28;20067;-93
2022/01/07 10:05:51;;;;;;;38.10;19.23;;;4.70;99.90;;;;;;4940973;28;20039;-92
2022/01/07 10:08:26;;;;;;;40.50;19.88;;;4.70;99.90;;;;;;4956935;28;20059;-92
2022/01/07 10:11:31;;;;;;;36.83;19.42;;;4.70;99.90;;;;;;4937535;28;20404;-94
2022/01/07 10:14:21;;;;;;;39.05;21.70;;;4.60;99.90;;;;;;4867100;29;20071;-93
2022/01/07 10:16:53;;;;;;;34.42;20.35;;;4.70;99.90;;;;;;4882268;29;20056;-94
2022/01/07 10:19:39;;;;;;;32.10;15.98;;;4.70;99.90;;;;;;4885697;29;20056;-92
2022/01/07 10:22:11;;;;;;;30.75;17.85;;;4.80;99.90;;;;;;4870371;29;20120;-92
2022/01/07 10:24:57;;;;;;;28.90;14.48;;;4.80;99.90;;;;;;4868999;29;20071;-92
2022/01/07 10:27:27;;;;;;;32.55;14.57;;;4.80;99.90;;;;;;4885054;29;20057;-91
2022/01/07 10:29:52;;;;;;;29.05;14.18;;;4.60;99.90;;;;;;4868795;29;20049;-90
2022/01/07 10:32:23;;;;;;;24.15;13.15;;;4.70;99.90;;;;;;4868945;29;20060;-92
2022/01/07 10:35:13;;;;;;;23.00;12.52;;;4.50;99.90;;;;;;4883005;29;20522;-92
2022/01/07 10:37:55;;;;;;;20.90;11.88;;;4.50;99.90;;;;;;4865098;29;20237;-92
2022/01/07 10:40:22;;;;;;;21.38;12.73;;;4.60;99.90;;;;;;4867542;29;20486;-93
2022/01/07 10:42:48;;;;;;;23.75;12.75;;;4.60;99.90;;;;;;4870949;29;20090;-93
2022/01/07 10:45:14;;;;;;;20.65;11.07;;;4.60;99.90;;;;;;4903909;29;20055;-91
2022/01/07 10:47:40;;;;;;;17.50;10.45;;;4.50;99.90;;;;;;4924568;29;20461;-92
2022/01/07 10:50:23;;;;;;;17.10;9.93;;;4.50;99.90;;;;;;4941541;29;20137;-92
2022/01/07 10:52:49;;;;;;;23.85;12.15;;;4.50;99.90;;;;;;4924605;29;20047;-93
2022/01/07 10:55:20;;;;;;;15.95;10.52;;;4.40;99.90;;;;;;4925131;29;20051;-93
2022/01/07 10:57:48;;;;;;;20.98;11.60;;;4.50;99.90;;;;;;4940886;28;20050;-91
2022/01/07 11:00:19;;;;;;;21.08;10.25;;;4.60;99.90;;;;;;4925409;29;20051;-94
2022/01/07 11:02:46;;;;;;;20.38;11.40;;;4.60;99.90;;;;;;4941346;29;20083;-93
2022/01/07 11:05:12;;;;;;;25.10;13.40;;;4.60;99.90;;;;;;4940346;28;20314;-93
2022/01/07 11:07:38;;;;;;;26.80;14.32;;;4.60;99.90;;;;;;4945461;29;20125;-92
2022/01/07 11:10:08;;;;;;;32.25;15.00;;;4.60;99.90;;;;;;4926831;29;20085;-93
2022/01/07 11:12:35;;;;;;;42.78;19.33;;;4.60;99.90;;;;;;4942374;29;20062;-93
2022/01/07 11:15:05;;;;;;;38.38;16.80;;;4.60;99.90;;;;;;4925156;29;20051;-93
2022/01/07 11:17:31;;;;;;;37.05;17.40;;;4.60;99.90;;;;;;4925645;29;20094;-93
2022/01/07 11:19:59;;;;;;;29.10;17.00;;;4.60;99.90;;;;;;4925221;29;20051;-93
2022/01/07 11:22:26;;;;;;;40.20;17.50;;;4.70;99.90;;;;;;4922701;29;20138;-93
2022/01/07 11:25:11;;;;;;;28.83;15.98;;;4.70;99.90;;;;;;4924168;29;20043;-93
2022/01/07 11:27:57;;;;;;;25.85;15.10;;;4.70;99.90;;;;;;4924067;29;20054;-93
2022/01/07 11:30:32;;;;;;;25.05;13.68;;;4.70;99.90;;;;;;4939798;29;20397;-92
2022/01/07 11:33:00;;;;;;;17.25;8.63;;;4.60;99.90;;;;;;4924678;29;20134;-94
2022/01/07 11:35:26;;;;;;;11.45;6.30;;;4.60;99.90;;;;;;4921845;29;20130;-93
2022/01/07 11:37:53;;;;;;;6.93;2.88;;;4.50;99.90;;;;;;4924688;29;20047;-92
2022/01/07 11:40:31;;;;;;;9.38;2.58;;;4.40;99.90;;;;;;4924095;29;20051;-93
2022/01/07 11:43:05;;;;;;;4.90;1.73;;;4.20;99.90;;;;;;4936413;28;20057;-93
2022/01/07 11:45:33;;;;;;;6.40;2.28;;;4.00;99.90;;;;;;4941859;28;20090;-92
2022/01/07 11:48:15;;;;;;;8.38;2.47;;;4.30;99.90;;;;;;4943842;28;20534;-92
2022/01/07 11:50:58;;;;;;;4.80;1.92;;;4.20;99.90;;;;;;4959235;28;20114;-93
2022/01/07 11:53:36;;;;;;;7.22;1.80;;;3.90;99.90;;;;;;4943623;28;20495;-92
2022/01/07 11:56:03;;;;;;;6.53;1.48;;;3.80;99.90;;;;;;4943685;28;20051;-92
2022/01/07 11:58:42;;;;;;;7.13;1.20;;;3.80;99.90;;;;;;4943993;28;20129;-93
2022/01/07 12:01:24;;;;;;;9.38;1.17;;;3.80;99.90;;;;;;4958630;28;20114;-93
2022/01/07 12:03:51;;;;;;;7.20;1.20;;;3.70;99.90;;;;;;4940769;28;20051;-93
2022/01/07 12:06:26;;;;;;;9.70;1.42;;;3.90;99.90;;;;;;4958414;28;20468;-93
2022/01/07 12:09:11;;;;;;;9.45;1.20;;;3.70;99.90;;;;;;4940818;28;20058;-93
2022/01/07 12:11:45;;;;;;;7.70;0.98;;;3.60;99.90;;;;;;4957510;28;20059;-93
2022/01/07 12:14:18;;;;;;;8.85;1.40;;;3.50;99.90;;;;;;4938550;28;20059;-93
2022/01/07 12:16:49;;;;;;;3.55;0.63;;;3.60;99.90;;;;;;4957884;28;20385;-94
2022/01/07 12:19:18;;;;;;;6.50;0.70;;;3.60;99.90;;;;;;4942511;28;20069;-93
2022/01/07 12:21:55;;;;;;;6.22;0.80;;;3.60;99.90;;;;;;4955627;28;20047;-94
2022/01/07 12:24:25;;;;;;;4.90;0.68;;;3.70;99.90;;;;;;4941919;28;20062;-94
2022/01/07 12:27:14;;;;;;;4.07;0.90;;;3.50;99.90;;;;;;4958227;28;20054;-93
2022/01/07 12:29:41;;;;;;;4.57;0.90;;;3.50;99.90;;;;;;4947138;28;20075;-94
2022/01/07 12:32:09;;;;;;;8.35;1.15;;;3.50;99.90;;;;;;4968579;28;20069;-91
2022/01/07 12:34:40;;;;;;;3.00;0.95;;;3.70;99.90;;;;;;4949199;28;20062;-94
2022/01/07 12:37:09;;;;;;;4.82;1.00;;;3.80;99.90;;;;;;4942203;28;20101;-92
2022/01/07 12:39:46;;;;;;;6.32;1.13;;;3.90;99.90;;;;;;4942140;28;20366;-92
2022/01/07 12:42:12;;;;;;;5.97;1.08;;;3.90;99.90;;;;;;4940273;28;20062;-93
2022/01/07 12:44:40;;;;;;;4.68;1.02;;;4.00;99.90;;;;;;4957786;28;20114;-94
2022/01/07 12:47:07;;;;;;;8.02;1.10;;;4.50;99.90;;;;;;4939481;28;20089;-93
2022/01/07 12:49:36;;;;;;;6.55;1.40;;;4.70;99.90;;;;;;4939747;28;20522;-92
2022/01/07 12:52:05;;;;;;;7.75;1.50;;;4.70;99.90;;;;;;4955062;28;20133;-93
2022/01/07 12:54:32;;;;;;;6.65;2.22;;;4.60;99.90;;;;;;4962088;28;20096;-93
2022/01/07 12:56:57;;;;;;;6.30;1.88;;;4.40;99.90;;;;;;4962171;28;20066;-92